Home > Products > Valid Products > TAF

000
FTUS45 KRIW 251100
TAFJAC
TAF
KJAC 251121Z 2512/2612 19006KT P6SM VCSH SCT025 BKN040
     FM251300 19005KT P6SM VCFG SCT007 BKN090
     FM251600 20007KT P6SM SCT050 BKN150
     FM252000 22009KT P6SM VCSH SCT080 BKN150
     FM260300 30007KT P6SM VCSH SCT030 BKN050
     FM260600 35011KT P6SM VCSH BKN030
      AMD LTD TO CLD VIS AND WIND=



000
FTUS45 KRIW 251100
TAFLND
TAF
KLND 251121Z 2512/2612 VRB05KT P6SM SCT100 BKN200
     FM252100 34007KT P6SM BKN100
     FM260400 04008KT 3SM RA BR SCT007 OVC018=



000
FTUS45 KRIW 251100
TAFWRL
TAF
KWRL 251121Z 2512/2612 VRB06KT P6SM VCSH SCT045 BKN090
     FM251400 VRB06KT 6SM -SHRA BKN045
     FM251500 32008KT P6SM BKN060
     FM252100 02007KT P6SM SCT120
     FM260400 04007KT P6SM VCSH SCT040 BKN080=



000
FTUS45 KRIW 251100
TAFRIW
TAF
KRIW 251121Z 2512/2612 32007KT P6SM SCT100 BKN200
     FM251800 04009KT P6SM BKN100
     FM260200 07010KT P6SM VCSH SCT030 BKN050
     FM260600 09014G20KT 6SM -RA BR SCT015 OVC030=



000
FTUS45 KRIW 251100
TAFCOD
TAF
KCOD 251121Z 2512/2612 01010KT P6SM VCSH BKN020
     FM251500 02010KT P6SM SCT025 BKN050
     FM252200 02011KT P6SM VCSH SCT060 BKN120
     FM260300 34007KT P6SM VCSH SCT035 BKN070
      AMD LTD TO CLD VIS AND WIND=



000
FTUS45 KRIW 251100
TAFRKS
TAF
KRKS 251121Z 2512/2612 26015KT P6SM SCT020 BKN060
     FM251600 25011KT P6SM SCT050 BKN150
     FM252300 20006KT P6SM VCSH SCT050 BKN100
     FM260200 12010KT P6SM VCSH SCT030 BKN050=



000
FTUS45 KRIW 251100
TAFCPR
TAF
KCPR 251121Z 2512/2612 22011KT P6SM SCT100
     FM251400 23014G24KT P6SM SCT080 BKN200
     FM252200 36011KT P6SM VCSH SCT040 BKN080
     FM260100 04014KT P6SM VCSH BKN030
     FM260600 04008KT 6SM -RA BR SCT008 OVC015=



000
FTUS45 KRIW 251100
TAFBPI
TAF
KBPI 251121Z 2512/2612 32005KT P6SM VCFG FEW015 SCT035
     FM251700 VRB05KT P6SM SCT060 BKN200
     FM252200 26010KT P6SM VCSH BKN060
     FM260400 12007KT 5SM RA BR OVC030
     FM260900 12007KT 2SM -RASN BR OVC015=



000
FTUS45 KRIW 251100
TAFJAC
TAF
KJAC 251121Z 2512/2612 19006KT P6SM VCSH SCT025 BKN040
     FM251300 19005KT P6SM VCFG SCT007 BKN090
     FM251600 20007KT P6SM SCT050 BKN150
     FM252000 22009KT P6SM VCSH SCT080 BKN150
     FM260300 30007KT P6SM VCSH SCT030 BKN050
     FM260600 35011KT P6SM VCSH BKN030
      AMD LTD TO CLD VIS AND WIND=



000
FTUS45 KRIW 251100
TAFRIW
TAF
KRIW 251121Z 2512/2612 32007KT P6SM SCT100 BKN200
     FM251800 04009KT P6SM BKN100
     FM260200 07010KT P6SM VCSH SCT030 BKN050
     FM260600 09014G20KT 6SM -RA BR SCT015 OVC030=



000
FTUS45 KRIW 251100
TAFCPR
TAF
KCPR 251121Z 2512/2612 22011KT P6SM SCT100
     FM251400 23014G24KT P6SM SCT080 BKN200
     FM252200 36011KT P6SM VCSH SCT040 BKN080
     FM260100 04014KT P6SM VCSH BKN030
     FM260600 04008KT 6SM -RA BR SCT008 OVC015=



000
FTUS45 KRIW 251100
TAFCOD
TAF
KCOD 251121Z 2512/2612 01010KT P6SM VCSH BKN020
     FM251500 02010KT P6SM SCT025 BKN050
     FM252200 02011KT P6SM VCSH SCT060 BKN120
     FM260300 34007KT P6SM VCSH SCT035 BKN070
      AMD LTD TO CLD VIS AND WIND=



000
FTUS45 KRIW 251100
TAFRKS
TAF
KRKS 251121Z 2512/2612 26015KT P6SM SCT020 BKN060
     FM251600 25011KT P6SM SCT050 BKN150
     FM252300 20006KT P6SM VCSH SCT050 BKN100
     FM260200 12010KT P6SM VCSH SCT030 BKN050=



000
FTUS45 KRIW 251100
TAFBPI
TAF
KBPI 251121Z 2512/2612 32005KT P6SM VCFG FEW015 SCT035
     FM251700 VRB05KT P6SM SCT060 BKN200
     FM252200 26010KT P6SM VCSH BKN060
     FM260400 12007KT 5SM RA BR OVC030
     FM260900 12007KT 2SM -RASN BR OVC015=



000
FTUS45 KRIW 251100
TAFLND
TAF
KLND 251121Z 2512/2612 VRB05KT P6SM SCT100 BKN200
     FM252100 34007KT P6SM BKN100
     FM260400 04008KT 3SM RA BR SCT007 OVC018=



000
FTUS45 KRIW 251100
TAFWRL
TAF
KWRL 251121Z 2512/2612 VRB06KT P6SM VCSH SCT045 BKN090
     FM251400 VRB06KT 6SM -SHRA BKN045
     FM251500 32008KT P6SM BKN060
     FM252100 02007KT P6SM SCT120
     FM260400 04007KT P6SM VCSH SCT040 BKN080=



000
FTUS45 KRIW 250700 AAA
TAFBPI
TAF AMD
KBPI 250701Z 2507/2606 VRB06KT P6SM -SHRA SCT020 OVC035
     FM251000 32005KT P6SM VCFG FEW015 SCT100
     FM251700 VRB05KT P6SM SCT060 BKN200
     FM252200 26010KT P6SM VCSH BKN060
     FM260400 12007KT 5SM RA BR OVC030=



000
FTUS45 KRIW 250500
TAFRKS
TAF
KRKS 250534Z 2506/2606 20011KT P6SM VCSH SCT025 BKN040
      TEMPO 2508/2512 -SHRA BKN025
     FM251200 26014KT P6SM SCT030 BKN060
     FM251800 25011KT P6SM SCT050 BKN150
     FM252300 20006KT P6SM VCSH SCT050 BKN100
     FM260200 12010KT P6SM VCSH SCT030 BKN050=



000
FTUS45 KRIW 250500
TAFRIW
TAF
KRIW 250534Z 2506/2606 26007KT P6SM SCT100 BKN200
     FM251800 04009KT P6SM BKN100
     FM260200 07010KT P6SM VCSH SCT030 BKN050=



000
FTUS45 KRIW 250500
TAFCOD
TAF
KCOD 250534Z 2506/2606 26010KT P6SM VCSH FEW050 BKN080
     FM250900 02010KT P6SM VCSH SCT015 BKN050
      TEMPO 2510/2514 BKN015
     FM251500 02010KT P6SM SCT025 BKN050
     FM252200 02011KT P6SM VCSH SCT060 BKN120
     FM260300 34007KT P6SM VCSH SCT035 BKN070
      AMD LTD TO CLD VIS AND WIND=



000
FTUS45 KRIW 250500
TAFJAC
TAF
KJAC 250534Z 2506/2606 22007KT P6SM -SHRA OVC030
     FM251100 21007KT P6SM VCFG SCT025 BKN100
     FM251600 20007KT P6SM SCT040 BKN150
     FM252000 22009KT P6SM VCSH SCT100 BKN150
     FM260300 30007KT P6SM VCSH SCT030 BKN050
      AMD LTD TO CLD VIS AND WIND=



000
FTUS45 KRIW 250500
TAFCPR
TAF
KCPR 250534Z 2506/2606 21010KT P6SM SCT100
     FM251400 23014G24KT P6SM SCT080 BKN150
     FM252200 36011KT P6SM VCSH SCT040 BKN080
     FM260100 04014KT P6SM VCSH BKN030=



000
FTUS45 KRIW 250500
TAFLND
TAF
KLND 250534Z 2506/2606 24011KT P6SM VCSH SCT080 BKN150
     FM251200 VRB05KT P6SM SCT100 BKN150
     FM252100 34007KT P6SM BKN100
     FM260400 04008KT 3SM RA BR SCT007 OVC018=



000
FTUS45 KRIW 250500
TAFWRL
TAF
KWRL 250534Z 2506/2606 VRB06KT P6SM SCT080 BKN150
     FM251400 32011KT P6SM SCT040 BKN060
     FM252100 02007KT P6SM SCT120
     FM260400 04007KT P6SM VCSH SCT040 BKN080=



000
FTUS45 KRIW 250500
TAFBPI
TAF
KBPI 250534Z 2506/2606 VRB06KT P6SM VCSH BKN100
     FM251100 32005KT P6SM VCFG FEW015 SCT100
     FM251700 VRB05KT P6SM SCT060 BKN200
     FM252200 26010KT P6SM VCSH BKN060
     FM260400 12007KT 5SM RA BR OVC030=



000
FTUS45 KRIW 250300 AAA
TAFJAC
TAF AMD
KJAC 250335Z 2504/2524 22007KT P6SM VCSH FEW020 BKN060
      TEMPO 2504/2507 BKN020
     FM251000 21007KT P6SM VCFG FEW015 BKN150
     FM251600 20007KT P6SM SCT050 BKN150
     FM252000 22009KT P6SM VCSH SCT100 BKN150
      AMD LTD TO CLD VIS AND WIND=



000
FTUS45 KRIW 250100 AAA
TAFBPI
TAF AMD
KBPI 250137Z 2502/2524 30007KT P6SM -SHRA VCTS SCT050CB BKN100
      TEMPO 2502/2504 VRB20G35KT -TSRA BKN050CB
     FM250400 VRB06KT P6SM VCSH BKN100
     FM250900 VRB04KT P6SM BKN100
     FM252100 26010KT P6SM BKN060=



000
FTUS45 KRIW 250100 AAA
TAFBPI
TAF AMD
KBPI 250137Z 2502/2524 30007KT P6SM -SHRA VCTS SCT050CB BKN100
      TEMPO 2502/2504 VRB20G35KT -TSRA BKN050CB
     FM250400 VRB06KT P6SM VCSH BKN100
     FM250900 VRB04KT P6SM BKN100
     FM252100 26010KT P6SM BKN060=



000
FTUS45 KRIW 250000 AAA
TAFRIW
TAF AMD
KRIW 250048Z 2501/2524 23010KT P6SM VCSH SCT100
      TEMPO 2501/2503 VRB20G30KT
     FM250300 VRB06KT P6SM SCT100
     FM251500 05009KT P6SM BKN100=



000
FTUS45 KRIW 250000 AAA
TAFRIW
TAF AMD
KRIW 250048Z 2501/2524 23010KT P6SM VCSH SCT100
      TEMPO 2501/2503 VRB20G30KT
     FM250300 VRB06KT P6SM SCT100
     FM251500 05009KT P6SM BKN100=



000
FTUS45 KRIW 242300
TAFWRL
TAF
KWRL 242330Z 2500/2524 VRB06KT P6SM SCT080
     FM251200 32011KT P6SM SCT040 BKN060
     FM252100 02007KT P6SM FEW120=



000
FTUS45 KRIW 242300
TAFJAC
TAF
KJAC 242330Z 2500/2524 20010KT P6SM -SHRA VCTS SCT040CB BKN060
      TEMPO 2500/2502 VRB15G25KT 6SM -SHRA BKN030
     FM250400 22011KT P6SM VCSH FEW020 BKN060
     FM250900 21007KT P6SM FEW015 BKN150
     FM252000 22009KT P6SM VCSH SCT100 BKN150
      AMD LTD TO CLD VIS AND WIND=



000
FTUS45 KRIW 242300
TAFRIW
TAF
KRIW 242330Z 2500/2524 23010KT P6SM SCT100
     FM250200 VRB06KT P6SM SCT100
     FM251500 05009KT P6SM BKN100=



000
FTUS45 KRIW 242300
TAFCPR
TAF
KCPR 242330Z 2500/2524 24010G15KT P6SM VCTS SCT060CB BKN120
      TEMPO 2500/2503 VRB15G30KT
     FM250300 21007KT P6SM SCT100
     FM250700 24014KT P6SM SCT100
     FM251600 05011KT P6SM FEW200
     FM252200 05011KT P6SM VCSH BKN050=



000
FTUS45 KRIW 242300
TAFCOD
TAF
KCOD 242330Z 2500/2524 VRB11G20KT P6SM VCSH FEW050 BKN080
     FM250800 02009KT P6SM FEW015 BKN080
     FM252300 02011KT P6SM VCSH SCT120
      AMD LTD TO CLD VIS AND WIND=



000
FTUS45 KRIW 242300
TAFLND
TAF
KLND 242330Z 2500/2524 26015G25KT P6SM VCSH SCT060 BKN150
     FM250200 VRB06KT P6SM SCT080=



000
FTUS45 KRIW 242300
TAFBPI
TAF
KBPI 242330Z 2500/2524 34010KT P6SM VCTS SCT050CB BKN080
     FM250200 30007KT P6SM VCSH BKN080
     FM250900 VRB04KT P6SM BKN100
     FM252100 26010KT P6SM BKN060=



000
FTUS45 KRIW 242300
TAFRKS
TAF
KRKS 242330Z 2500/2524 VRB17G26KT P6SM VCTS SCT050CB BKN100
     FM250200 24015KT P6SM VCSH SCT060 BKN100
     FM250600 26011KT P6SM VCSH SCT025 BKN040
     FM251000 27011KT P6SM SCT040 BKN060
     FM252300 VRB06KT P6SM VCSH BKN050=



000
FTUS45 KRIW 242300
TAFRIW
TAF
KRIW 242330Z 2500/2524 23010KT P6SM SCT100
     FM250200 VRB06KT P6SM SCT100
     FM251500 05009KT P6SM BKN100=



000
FTUS45 KRIW 242300
TAFLND
TAF
KLND 242330Z 2500/2524 26015G25KT P6SM VCSH SCT060 BKN150
     FM250200 VRB06KT P6SM SCT080=



000
FTUS45 KRIW 242300
TAFBPI
TAF
KBPI 242330Z 2500/2524 34010KT P6SM VCTS SCT050CB BKN080
     FM250200 30007KT P6SM VCSH BKN080
     FM250900 VRB04KT P6SM BKN100
     FM252100 26010KT P6SM BKN060=



000
FTUS45 KRIW 242300
TAFCOD
TAF
KCOD 242330Z 2500/2524 VRB11G20KT P6SM VCSH FEW050 BKN080
     FM250800 02009KT P6SM FEW015 BKN080
     FM252300 02011KT P6SM VCSH SCT120
      AMD LTD TO CLD VIS AND WIND=



000
FTUS45 KRIW 242300
TAFWRL
TAF
KWRL 242330Z 2500/2524 VRB06KT P6SM SCT080
     FM251200 32011KT P6SM SCT040 BKN060
     FM252100 02007KT P6SM FEW120=



000
FTUS45 KRIW 242300
TAFCPR
TAF
KCPR 242330Z 2500/2524 24010G15KT P6SM VCTS SCT060CB BKN120
      TEMPO 2500/2503 VRB15G30KT
     FM250300 21007KT P6SM SCT100
     FM250700 24014KT P6SM SCT100
     FM251600 05011KT P6SM FEW200
     FM252200 05011KT P6SM VCSH BKN050=



000
FTUS45 KRIW 242300
TAFJAC
TAF
KJAC 242330Z 2500/2524 20010KT P6SM -SHRA VCTS SCT040CB BKN060
      TEMPO 2500/2502 VRB15G25KT 6SM -SHRA BKN030
     FM250400 22011KT P6SM VCSH FEW020 BKN060
     FM250900 21007KT P6SM FEW015 BKN150
     FM252000 22009KT P6SM VCSH SCT100 BKN150
      AMD LTD TO CLD VIS AND WIND=



000
FTUS45 KRIW 242300
TAFRKS
TAF
KRKS 242330Z 2500/2524 VRB17G26KT P6SM VCTS SCT050CB BKN100
     FM250200 24015KT P6SM VCSH SCT060 BKN100
     FM250600 26011KT P6SM VCSH SCT025 BKN040
     FM251000 27011KT P6SM SCT040 BKN060
     FM252300 VRB06KT P6SM VCSH BKN050=



000
FTUS45 KRIW 242100 AAB
TAFRKS
TAF AMD
KRKS 242145Z 2422/2518 VRB17G26KT P6SM -SHRA VCTS SCT040CB BKN070
     FM250200 24015KT P6SM VCSH SCT060
     FM250600 26011KT P6SM VCSH SCT025 BKN040
     FM251000 27011KT P6SM SCT040 BKN060=



000
FTUS45 KRIW 242100 AAA
TAFCOD
TAF AMD
KCOD 242143Z 2422/2518 VRB11G20KT P6SM VCSH FEW050 BKN080
     FM250800 02010KT P6SM FEW015 BKN080
      AMD LTD TO CLD VIS AND WIND=



000
FTUS45 KRIW 242100 AAA
TAFLND
TAF AMD
KLND 242143Z 2422/2518 VRB15G26KT P6SM VCSH SCT060 BKN150
     FM250100 VRB06KT P6SM SCT080=



000
FTUS45 KRIW 242100 AAA
TAFLND
TAF AMD
KLND 242143Z 2422/2518 VRB15G26KT P6SM VCSH SCT060 BKN150
     FM250100 VRB06KT P6SM SCT080=



000
FTUS45 KRIW 242100 AAB
TAFBPI
TAF AMD
KBPI 242142Z 2422/2518 VRB11KT P6SM VCTS SCT035CB BKN060
     FM250200 30007KT P6SM VCSH BKN080
     FM250900 VRB04KT P6SM BKN100=



000
FTUS45 KRIW 242100 CCA
TAFRIW
TAF COR
KRIW 242114Z 2421/2518 20010KT P6SM VCSH SCT080
      TEMPO 2421/2422 VRB14G28KT
     FM242300 23010KT P6SM SCT060 BKN100
     FM250200 VRB06KT P6SM SCT100
     FM251500 05009KT P6SM BKN100=



000
FTUS45 KRIW 242100 AAA
TAFRIW
TAF AMD
KRIW 242112Z 2421/2518 20010KT P6SM VCSH SCT080
     FM242300 23010KT P6SM SCT060 BKN100
     FM250200 VRB06KT P6SM SCT100
     FM251500 05009KT P6SM BKN100=



000
FTUS45 KRIW 241900 AAA
TAFRKS
TAF AMD
KRKS 241909Z 2419/2518 27013G24KT P6SM SCT090
     FM242000 27017G26KT P6SM -SHRA VCTS SCT060CB BKN100
     FM250200 24015KT P6SM VCSH SCT060
     FM250600 26011KT P6SM VCSH SCT025 BKN040
     FM251000 27011KT P6SM SCT040 BKN060=



000
FTUS45 KRIW 241900 AAA
TAFRKS
TAF AMD
KRKS 241909Z 2419/2518 27013G24KT P6SM SCT090
     FM242000 27017G26KT P6SM -SHRA VCTS SCT060CB BKN100
     FM250200 24015KT P6SM VCSH SCT060
     FM250600 26011KT P6SM VCSH SCT025 BKN040
     FM251000 27011KT P6SM SCT040 BKN060=



000
FTUS45 KRIW 241900 AAA
TAFBPI
TAF AMD
KBPI 241908Z 2419/2518 VRB06KT P6SM VCSH BKN040 OVC060
     FM242000 VRB10G25KT P6SM -SHRA VCTS BKN035CB OVC050
     FM250200 30007KT P6SM VCSH BKN080
     FM250900 VRB04KT P6SM BKN100=



000
FTUS45 KRIW 241900 AAA
TAFBPI
TAF AMD
KBPI 241908Z 2419/2518 VRB06KT P6SM VCSH BKN040 OVC060
     FM242000 VRB10G25KT P6SM -SHRA VCTS BKN035CB OVC050
     FM250200 30007KT P6SM VCSH BKN080
     FM250900 VRB04KT P6SM BKN100=



000
FTUS45 KRIW 241700
TAFCOD
TAF
KCOD 241720Z 2418/2518 24008KT P6SM FEW060 SCT080
     FM242300 VRB11G20KT P6SM VCSH FEW050 BKN080
     FM250800 02010KT P6SM FEW015 BKN080
      AMD LTD TO CLD VIS AND WIND=



000
FTUS45 KRIW 241700
TAFWRL
TAF
KWRL 241720Z 2418/2518 VRB06KT P6SM SKC
     FM251200 32011KT P6SM SCT040 BKN060=



000
FTUS45 KRIW 241700
TAFCPR
TAF
KCPR 241720Z 2418/2518 24011KT P6SM SCT100
     FM242300 VRB11KT P6SM VCSH SCT080 BKN120
      TEMPO 2500/2503 21015G25KT 6SM -TSRA SCT040CB BKN050
     FM250300 21007KT P6SM SCT100
     FM250700 24014KT P6SM SCT100=



000
FTUS45 KRIW 241700
TAFJAC
TAF
KJAC 241720Z 2418/2518 VRB05KT P6SM VCSH SCT040 BKN080
     FM241900 VRB11G15KT P6SM -SHRA VCTS SCT040CB BKN050
     FM250400 22011KT P6SM VCSH FEW020 BKN060
     FM250900 21007KT P6SM FEW015 BKN150
      AMD LTD TO CLD VIS AND WIND=



000
FTUS45 KRIW 241700
TAFLND
TAF
KLND 241720Z 2418/2518 VRB05KT P6SM FEW070
     FM242100 VRB11G16KT P6SM VCSH SCT060 BKN150
     FM250100 VRB06KT P6SM SCT080=



000
FTUS45 KRIW 241700
TAFLND
TAF
KLND 241720Z 2418/2518 VRB05KT P6SM FEW070
     FM242100 VRB11G16KT P6SM VCSH SCT060 BKN150
     FM250100 VRB06KT P6SM SCT080=



000
FTUS45 KRIW 241700
TAFJAC
TAF
KJAC 241720Z 2418/2518 VRB05KT P6SM VCSH SCT040 BKN080
     FM241900 VRB11G15KT P6SM -SHRA VCTS SCT040CB BKN050
     FM250400 22011KT P6SM VCSH FEW020 BKN060
     FM250900 21007KT P6SM FEW015 BKN150
      AMD LTD TO CLD VIS AND WIND=



000
FTUS45 KRIW 241700
TAFWRL
TAF
KWRL 241720Z 2418/2518 VRB06KT P6SM SKC
     FM251200 32011KT P6SM SCT040 BKN060=



000
FTUS45 KRIW 241700
TAFRKS
TAF
KRKS 241720Z 2418/2518 27011KT P6SM SCT090
     FM242000 27017G26KT P6SM -SHRA VCTS SCT060CB BKN100
     FM250200 24015KT P6SM VCSH SCT060
     FM250600 26011KT P6SM VCSH SCT025 BKN040
     FM251000 27011KT P6SM SCT040 BKN060=



000
FTUS45 KRIW 241700
TAFBPI
TAF
KBPI 241720Z 2418/2518 VRB06KT P6SM VCSH BKN040 OVC060
     FM241900 VRB10G25KT P6SM -SHRA VCTS BKN035CB OVC050
     FM250200 30007KT P6SM VCSH BKN080
     FM250900 VRB04KT P6SM BKN100=



000
FTUS45 KRIW 241700
TAFRKS
TAF
KRKS 241720Z 2418/2518 27011KT P6SM SCT090
     FM242000 27017G26KT P6SM -SHRA VCTS SCT060CB BKN100
     FM250200 24015KT P6SM VCSH SCT060
     FM250600 26011KT P6SM VCSH SCT025 BKN040
     FM251000 27011KT P6SM SCT040 BKN060=



000
FTUS45 KRIW 241700
TAFCOD
TAF
KCOD 241720Z 2418/2518 24008KT P6SM FEW060 SCT080
     FM242300 VRB11G20KT P6SM VCSH FEW050 BKN080
     FM250800 02010KT P6SM FEW015 BKN080
      AMD LTD TO CLD VIS AND WIND=



000
FTUS45 KRIW 241700
TAFRIW
TAF
KRIW 241720Z 2418/2518 20010KT P6SM FEW080
     FM242300 23010KT P6SM SCT060 BKN100
     FM250200 VRB06KT P6SM SCT100
     FM251500 05009KT P6SM BKN100=



000
FTUS45 KRIW 241700
TAFRIW
TAF
KRIW 241720Z 2418/2518 20010KT P6SM FEW080
     FM242300 23010KT P6SM SCT060 BKN100
     FM250200 VRB06KT P6SM SCT100
     FM251500 05009KT P6SM BKN100=



000
FTUS45 KRIW 241700
TAFCPR
TAF
KCPR 241720Z 2418/2518 24011KT P6SM SCT100
     FM242300 VRB11KT P6SM VCSH SCT080 BKN120
      TEMPO 2500/2503 21015G25KT 6SM -TSRA SCT040CB BKN050
     FM250300 21007KT P6SM SCT100
     FM250700 24014KT P6SM SCT100=



000
FTUS45 KRIW 241700
TAFBPI
TAF
KBPI 241720Z 2418/2518 VRB06KT P6SM VCSH BKN040 OVC060
     FM241900 VRB10G25KT P6SM -SHRA VCTS BKN035CB OVC050
     FM250200 30007KT P6SM VCSH BKN080
     FM250900 VRB04KT P6SM BKN100=



000
FTUS45 KRIW 241100
TAFLND
TAF
KLND 241122Z 2412/2512 VRB05KT P6SM SCT100
     FM242100 23007KT P6SM VCSH SCT100 BKN150
     FM251000 34007KT P6SM SCT030 BKN050=



000
FTUS45 KRIW 241100
TAFCOD
TAF
KCOD 241122Z 2412/2512 VRB05KT P6SM SCT100
     FM242100 VRB10G15KT P6SM VCSH BKN080
     FM250700 34010G15KT P6SM VCSH SCT015 BKN030
      AMD LTD TO CLD VIS AND WIND=



000
FTUS45 KRIW 241100
TAFCOD
TAF
KCOD 241122Z 2412/2512 VRB05KT P6SM SCT100
     FM242100 VRB10G15KT P6SM VCSH BKN080
     FM250700 34010G15KT P6SM VCSH SCT015 BKN030
      AMD LTD TO CLD VIS AND WIND=



000
FTUS45 KRIW 241100
TAFBPI
TAF
KBPI 241122Z 2412/2512 VRB05KT P6SM VCFG FEW010 SCT090
     FM241700 VRB05KT P6SM VCSH BKN090
     FM241900 VRB10G16KT P6SM -SHRA VCTS SCT050CB BKN080
     FM250300 33007KT P6SM VCSH BKN080=



000
FTUS45 KRIW 241100
TAFCPR
TAF
KCPR 241122Z 2412/2512 24010KT P6SM SCT100
     FM242200 25010KT P6SM VCSH SCT080 BKN120
     FM250300 22007KT P6SM SCT100=



000
FTUS45 KRIW 241100
TAFCPR
TAF
KCPR 241122Z 2412/2512 24010KT P6SM SCT100
     FM242200 25010KT P6SM VCSH SCT080 BKN120
     FM250300 22007KT P6SM SCT100=



000
FTUS45 KRIW 241100
TAFWRL
TAF
KWRL 241122Z 2412/2512 VRB06KT P6SM SCT100
     FM250000 VRB06KT P6SM SCT100 BKN150
     FM250900 33008KT P6SM SCT030 BKN050=



000
FTUS45 KRIW 241100
TAFRIW
TAF
KRIW 241122Z 2412/2512 27008KT P6SM FEW120
     FM241500 VRB05KT P6SM SCT100
     FM242200 25007KT P6SM SCT100 BKN150
     FM251000 02010KT P6SM SCT030 BKN050=



000
FTUS45 KRIW 241100
TAFRKS
TAF
KRKS 241122Z 2412/2512 17007KT P6SM SCT120
     FM241600 24010KT P6SM BKN110
     FM241800 26014G22KT P6SM VCSH SCT080 BKN110
     FM242000 26015G25KT P6SM -SHRA VCTS SCT060CB BKN100
     FM250200 23011KT P6SM VCSH BKN080=



000
FTUS45 KRIW 241100
TAFJAC
TAF
KJAC 241122Z 2412/2512 VRB05KT P6SM FEW005 SCT090
     FM241700 VRB05KT P6SM VCSH BKN080
     FM241900 19011KT P6SM -SHRA VCTS SCT040CB BKN060
     FM250200 22008KT P6SM VCSH BKN060
      AMD LTD TO CLD VIS AND WIND=



000
FTUS45 KRIW 241100
TAFBPI
TAF
KBPI 241122Z 2412/2512 VRB05KT P6SM VCFG FEW010 SCT090
     FM241700 VRB05KT P6SM VCSH BKN090
     FM241900 VRB10G16KT P6SM -SHRA VCTS SCT050CB BKN080
     FM250300 33007KT P6SM VCSH BKN080=



000
FTUS45 KRIW 241100
TAFLND
TAF
KLND 241122Z 2412/2512 VRB05KT P6SM SCT100
     FM242100 23007KT P6SM VCSH SCT100 BKN150
     FM251000 34007KT P6SM SCT030 BKN050=



000
FTUS45 KRIW 241100
TAFRIW
TAF
KRIW 241122Z 2412/2512 27008KT P6SM FEW120
     FM241500 VRB05KT P6SM SCT100
     FM242200 25007KT P6SM SCT100 BKN150
     FM251000 02010KT P6SM SCT030 BKN050=



000
FTUS45 KRIW 241100
TAFRKS
TAF
KRKS 241122Z 2412/2512 17007KT P6SM SCT120
     FM241600 24010KT P6SM BKN110
     FM241800 26014G22KT P6SM VCSH SCT080 BKN110
     FM242000 26015G25KT P6SM -SHRA VCTS SCT060CB BKN100
     FM250200 23011KT P6SM VCSH BKN080=



000
FTUS45 KRIW 241100
TAFJAC
TAF
KJAC 241122Z 2412/2512 VRB05KT P6SM FEW005 SCT090
     FM241700 VRB05KT P6SM VCSH BKN080
     FM241900 19011KT P6SM -SHRA VCTS SCT040CB BKN060
     FM250200 22008KT P6SM VCSH BKN060
      AMD LTD TO CLD VIS AND WIND=



000
FTUS45 KRIW 241100
TAFWRL
TAF
KWRL 241122Z 2412/2512 VRB06KT P6SM SCT100
     FM250000 VRB06KT P6SM SCT100 BKN150
     FM250900 33008KT P6SM SCT030 BKN050=



000
FTUS45 KRIW 240500
TAFCPR
TAF
KCPR 240520Z 2406/2506 23008KT P6SM SCT080
     FM242200 25010KT P6SM VCSH SCT080 BKN120
     FM250300 22007KT P6SM SCT100=



000
FTUS45 KRIW 240500
TAFLND
TAF
KLND 240520Z 2406/2506 25007KT P6SM SCT120
     FM241200 VRB05KT P6SM SCT100
     FM242100 23007KT P6SM VCSH SCT100 BKN150=



000
FTUS45 KRIW 240500
TAFCOD
TAF
KCOD 240520Z 2406/2506 VRB05KT P6SM SCT100
     FM242100 VRB10G15KT P6SM VCSH BKN080
      AMD LTD TO CLD VIS AND WIND=



000
FTUS45 KRIW 240500
TAFRIW
TAF
KRIW 240520Z 2406/2506 30007KT P6SM SCT120
     FM241500 VRB05KT P6SM SCT100
     FM242200 25007KT P6SM SCT100 BKN150=



000
FTUS45 KRIW 240500
TAFJAC
TAF
KJAC 240520Z 2406/2506 VRB05KT P6SM FEW070
     FM241700 VRB05KT P6SM VCSH BKN080
     FM241900 19011KT P6SM -SHRA VCTS SCT040CB BKN060
     FM250200 22008KT P6SM VCSH BKN060
      AMD LTD TO CLD VIS AND WIND=



000
FTUS45 KRIW 240500
TAFRKS
TAF
KRKS 240520Z 2406/2506 22010KT P6SM SCT100
     FM241800 26014G22KT P6SM VCSH SCT100 BKN150
     FM242000 26015G25KT P6SM -SHRA VCTS SCT060CB BKN100
     FM250200 23011KT P6SM VCSH BKN080=



000
FTUS45 KRIW 240500
TAFWRL
TAF
KWRL 240520Z 2406/2506 VRB06KT P6SM SCT100
     FM250000 VRB06KT P6SM SCT100 BKN150=



000
FTUS45 KRIW 240500
TAFBPI
TAF
KBPI 240520Z 2406/2506 VRB05KT P6SM SCT080 BKN150
     FM241000 VRB05KT P6SM VCFG FEW010 SCT080
     FM241700 VRB05KT P6SM VCSH BKN100
     FM241900 VRB10G16KT P6SM -SHRA VCTS SCT050CB BKN080
     FM250300 33007KT P6SM VCSH BKN080=



000
FTUS45 KRIW 240300 AAA
TAFRKS
TAF AMD
KRKS 240309Z 2403/2424 27014G20KT P6SM VCSH BKN090
     FM240900 25010KT P6SM SCT080 BKN150
     FM241900 26014G22KT P6SM BKN090=



000
FTUS45 KRIW 232300
TAFJAC
TAF
KJAC 232328Z 2400/2424 24011KT P6SM VCSH SCT040 BKN080
     FM240200 20009KT P6SM BKN070
     FM240600 36006KT P6SM SCT070
     FM241600 16007KT P6SM SCT070
     FM242100 19011KT P6SM VCSH SCT040 BKN060
      AMD LTD TO CLD VIS AND WIND=



000
FTUS45 KRIW 232300
TAFLND
TAF
KLND 232328Z 2400/2424 VRB10G20KT P6SM VCSH BKN080
      TEMPO 2400/2402 VRB20G30KT -SHRA
     FM240300 VRB05KT P6SM BKN100
     FM240900 28006KT P6SM SCT100
     FM242200 VRB06KT P6SM BKN100=



000
FTUS45 KRIW 232300
TAFRKS
TAF
KRKS 232328Z 2400/2424 23015G25KT P6SM -SHRA VCTS BKN070CB
      TEMPO 2400/2402 VRB15G35KT -TSRA BKN050CB
     FM240300 25008KT P6SM BKN090
     FM241900 26014G22KT P6SM BKN090=



000
FTUS45 KRIW 232300
TAFCPR
TAF
KCPR 232328Z 2400/2424 VRB08G15KT P6SM -SHRA BKN080
     FM240400 VRB06KT P6SM BKN090
     FM240700 VRB06KT P6SM SCT015 BKN040
     FM241600 28007KT P6SM SCT060=



000
FTUS45 KRIW 232300
TAFCOD
TAF
KCOD 232328Z 2400/2424 02011KT P6SM -SHRA BKN080
     FM240300 34006KT P6SM BKN100
     FM242100 VRB10G15KT P6SM VCSH BKN080
      AMD LTD TO CLD VIS AND WIND=



000
FTUS45 KRIW 232300
TAFCPR
TAF
KCPR 232328Z 2400/2424 VRB08G15KT P6SM -SHRA BKN080
     FM240400 VRB06KT P6SM BKN090
     FM240700 VRB06KT P6SM SCT015 BKN040
     FM241600 28007KT P6SM SCT060=



000
FTUS45 KRIW 232300
TAFWRL
TAF
KWRL 232328Z 2400/2424 VRB10G20KT P6SM VCSH BKN100
     FM240400 VRB06KT P6SM BKN100
     FM240900 VRB05KT P6SM SCT100=



000
FTUS45 KRIW 232300
TAFRIW
TAF
KRIW 232328Z 2400/2424 VRB08G15KT P6SM VCSH BKN080
     FM240300 30007KT P6SM BKN100
     FM241500 VRB05KT P6SM SCT100
     FM242200 VRB06KT P6SM BKN100=



000
FTUS45 KRIW 232300
TAFCOD
TAF
KCOD 232328Z 2400/2424 02011KT P6SM -SHRA BKN080
     FM240300 34006KT P6SM BKN100
     FM242100 VRB10G15KT P6SM VCSH BKN080
      AMD LTD TO CLD VIS AND WIND=



000
FTUS45 KRIW 232300
TAFBPI
TAF
KBPI 232328Z 2400/2424 VRB15G25KT P6SM VCSH BKN050 OVC080
     FM240200 30010KT P6SM BKN080
     FM240500 VRB06KT P6SM SCT090
     FM242100 VRB10G16KT P6SM VCSH SCT050 BKN070=



000
FTUS45 KRIW 232300
TAFRIW
TAF
KRIW 232328Z 2400/2424 VRB08G15KT P6SM VCSH BKN080
     FM240300 30007KT P6SM BKN100
     FM241500 VRB05KT P6SM SCT100
     FM242200 VRB06KT P6SM BKN100=



000
FTUS45 KRIW 232300
TAFJAC
TAF
KJAC 232328Z 2400/2424 24011KT P6SM VCSH SCT040 BKN080
     FM240200 20009KT P6SM BKN070
     FM240600 36006KT P6SM SCT070
     FM241600 16007KT P6SM SCT070
     FM242100 19011KT P6SM VCSH SCT040 BKN060
      AMD LTD TO CLD VIS AND WIND=



000
FTUS45 KRIW 232300
TAFLND
TAF
KLND 232328Z 2400/2424 VRB10G20KT P6SM VCSH BKN080
      TEMPO 2400/2402 VRB20G30KT -SHRA
     FM240300 VRB05KT P6SM BKN100
     FM240900 28006KT P6SM SCT100
     FM242200 VRB06KT P6SM BKN100=



000
FTUS45 KRIW 232300
TAFBPI
TAF
KBPI 232328Z 2400/2424 VRB15G25KT P6SM VCSH BKN050 OVC080
     FM240200 30010KT P6SM BKN080
     FM240500 VRB06KT P6SM SCT090
     FM242100 VRB10G16KT P6SM VCSH SCT050 BKN070=



000
FTUS45 KRIW 232300
TAFWRL
TAF
KWRL 232328Z 2400/2424 VRB10G20KT P6SM VCSH BKN100
     FM240400 VRB06KT P6SM BKN100
     FM240900 VRB05KT P6SM SCT100=



000
FTUS45 KRIW 232300
TAFRKS
TAF
KRKS 232328Z 2400/2424 23015G25KT P6SM -SHRA VCTS BKN070CB
      TEMPO 2400/2402 VRB15G35KT -TSRA BKN050CB
     FM240300 25008KT P6SM BKN090
     FM241900 26014G22KT P6SM BKN090=



000
FTUS45 KRIW 232200 AAA
TAFCPR
TAF AMD
KCPR 232232Z 2323/2418 VRB10G20KT P6SM VCTS SCT050CB BKN100
      TEMPO 2323/2401 VRB15G35KT -TSRAGS BKN050CB
     FM240400 VRB06KT P6SM BKN090
     FM240700 VRB06KT P6SM SCT015 BKN040
     FM241600 28007KT P6SM SCT060=



000
FTUS45 KRIW 232200 AAA
TAFWRL
TAF AMD
KWRL 232212Z 2322/2418 34008KT P6SM VCTS BKN080CB
      TEMPO 2322/2324 VRB15G35KT 3SM -TSRA BKN050CB
     FM240000 VRB10G20KT P6SM VCSH BKN100
     FM240400 VRB06KT P6SM BKN100
     FM240900 VRB05KT P6SM SCT100=



000
FTUS45 KRIW 232200 AAA
TAFWRL
TAF AMD
KWRL 232212Z 2322/2418 34008KT P6SM VCTS BKN080CB
      TEMPO 2322/2324 VRB15G35KT 3SM -TSRA BKN050CB
     FM240000 VRB10G20KT P6SM VCSH BKN100
     FM240400 VRB06KT P6SM BKN100
     FM240900 VRB05KT P6SM SCT100=



000
FTUS45 KRIW 232000 AAA
TAFBPI
TAF AMD
KBPI 232028Z 2320/2418 VRB10G16KT P6SM VCTS BKN050CB OVC080
      TEMPO 2320/2322 VRB20G30KT 6SM -TSRA
     FM240100 30010KT P6SM BKN080
     FM240500 VRB06KT P6SM SCT090=



000
FTUS45 KRIW 231800 AAA
TAFRKS
TAF AMD
KRKS 231857Z 2319/2418 25012G20KT P6SM VCSH BKN070
      TEMPO 2319/2322 VRB20G30KT -SHRA BKN050
     FM240300 25008KT P6SM BKN090=



000
FTUS45 KRIW 231800 AAA
TAFCOD
TAF AMD
KCOD 231856Z 2319/2418 02011KT P6SM VCSH BKN080
      TEMPO 2319/2322 VRB15G25KT -SHRA BKN060
     FM240300 34006KT P6SM BKN100
      AMD LTD TO CLD VIS AND WIND=



000
FTUS45 KRIW 231800 AAA
TAFCOD
TAF AMD
KCOD 231856Z 2319/2418 02011KT P6SM VCSH BKN080
      TEMPO 2319/2322 VRB15G25KT -SHRA BKN060
     FM240300 34006KT P6SM BKN100
      AMD LTD TO CLD VIS AND WIND=



000
FTUS45 KRIW 231700
TAFCPR
TAF
KCPR 231721Z 2318/2418 22012G18KT P6SM SCT080 BKN110
     FM232200 VRB10G20KT P6SM VCSH BKN080
     FM240400 VRB06KT P6SM BKN090
     FM240700 VRB06KT P6SM SCT015 BKN040
     FM241600 28007KT P6SM SCT060=



000
FTUS45 KRIW 231700
TAFLND
TAF
KLND 231721Z 2318/2418 VRB06KT P6SM SCT080 BKN110
     FM232000 VRB10G20KT P6SM VCSH BKN080
     FM240300 VRB05KT P6SM BKN100
     FM240900 28006KT P6SM SCT100=



000
FTUS45 KRIW 231700
TAFBPI
TAF
KBPI 231721Z 2318/2418 VRB08G15KT P6SM VCSH BKN050 OVC080
      TEMPO 2318/2322 6SM -SHRA
     FM240100 30010KT P6SM BKN080
     FM240500 VRB06KT P6SM SCT090=



000
FTUS45 KRIW 231700
TAFRIW
TAF
KRIW 231721Z 2318/2418 VRB06KT P6SM SCT090 BKN120
     FM232100 VRB10G20KT P6SM VCSH BKN080
     FM240300 30007KT P6SM BKN100
     FM241500 VRB05KT P6SM SCT100=



000
FTUS45 KRIW 231700
TAFJAC
TAF
KJAC 231721Z 2318/2418 19011KT P6SM VCSH SCT035 BKN060
     FM240200 20009KT P6SM BKN070
     FM240600 36006KT P6SM SCT070
     FM241600 16007KT P6SM SCT070
      AMD LTD TO CLD VIS AND WIND=



000
FTUS45 KRIW 231700
TAFCOD
TAF
KCOD 231721Z 2318/2418 03011KT P6SM SCT080
     FM232100 02011KT P6SM VCSH BKN080
     FM240300 34006KT P6SM BKN100
      AMD LTD TO CLD VIS AND WIND=



000
FTUS45 KRIW 231700
TAFWRL
TAF
KWRL 231721Z 2318/2418 VRB05KT P6SM SCT110
     FM232100 34008KT P6SM BKN100
     FM240000 VRB10G20KT P6SM VCSH BKN100
     FM240400 VRB06KT P6SM BKN100
     FM240900 VRB05KT P6SM SCT100=



000
FTUS45 KRIW 231700
TAFRKS
TAF
KRKS 231721Z 2318/2418 24009KT P6SM SCT100
     FM232000 25012G20KT P6SM VCSH BKN070
     FM240300 25008KT P6SM BKN090=



000
FTUS45 KRIW 231700
TAFCPR
TAF
KCPR 231721Z 2318/2418 22012G18KT P6SM SCT080 BKN110
     FM232200 VRB10G20KT P6SM VCSH BKN080
     FM240400 VRB06KT P6SM BKN090
     FM240700 VRB06KT P6SM SCT015 BKN040
     FM241600 28007KT P6SM SCT060=



000
FTUS45 KRIW 231700
TAFJAC
TAF
KJAC 231721Z 2318/2418 19011KT P6SM VCSH SCT035 BKN060
     FM240200 20009KT P6SM BKN070
     FM240600 36006KT P6SM SCT070
     FM241600 16007KT P6SM SCT070
      AMD LTD TO CLD VIS AND WIND=



000
FTUS45 KRIW 231700
TAFCOD
TAF
KCOD 231721Z 2318/2418 03011KT P6SM SCT080
     FM232100 02011KT P6SM VCSH BKN080
     FM240300 34006KT P6SM BKN100
      AMD LTD TO CLD VIS AND WIND=



000
FTUS45 KRIW 231700
TAFWRL
TAF
KWRL 231721Z 2318/2418 VRB05KT P6SM SCT110
     FM232100 34008KT P6SM BKN100
     FM240000 VRB10G20KT P6SM VCSH BKN100
     FM240400 VRB06KT P6SM BKN100
     FM240900 VRB05KT P6SM SCT100=



000
FTUS45 KRIW 231700
TAFRKS
TAF
KRKS 231721Z 2318/2418 24009KT P6SM SCT100
     FM232000 25012G20KT P6SM VCSH BKN070
     FM240300 25008KT P6SM BKN090=



000
FTUS45 KRIW 231700
TAFLND
TAF
KLND 231721Z 2318/2418 VRB06KT P6SM SCT080 BKN110
     FM232000 VRB10G20KT P6SM VCSH BKN080
     FM240300 VRB05KT P6SM BKN100
     FM240900 28006KT P6SM SCT100=



000
FTUS45 KRIW 231700
TAFRIW
TAF
KRIW 231721Z 2318/2418 VRB06KT P6SM SCT090 BKN120
     FM232100 VRB10G20KT P6SM VCSH BKN080
     FM240300 30007KT P6SM BKN100
     FM241500 VRB05KT P6SM SCT100=



000
FTUS45 KRIW 231700
TAFBPI
TAF
KBPI 231721Z 2318/2418 VRB08G15KT P6SM VCSH BKN050 OVC080
      TEMPO 2318/2322 6SM -SHRA
     FM240100 30010KT P6SM BKN080
     FM240500 VRB06KT P6SM SCT090=



000
FTUS45 KRIW 231300 AAA
TAFCPR
TAF AMD
KCPR 231336Z 2314/2412 21014G22KT P6SM SCT090 BKN120
     FM231600 22012G18KT P6SM SCT080 BKN110
     FM232200 VRB10G20KT P6SM VCSH BKN080
     FM240400 VRB06KT P6SM BKN090=



000
FTUS45 KRIW 231100
TAFRIW
TAF
KRIW 231122Z 2312/2412 VRB06KT P6SM SCT090 BKN120
     FM232100 VRB10G20KT P6SM VCSH BKN080
     FM240300 30007KT P6SM BKN100=



000
FTUS45 KRIW 231100
TAFRKS
TAF
KRKS 231122Z 2312/2412 24009KT P6SM SCT100
     FM232000 25012G20KT P6SM VCSH BKN070
     FM240300 25008KT P6SM BKN090=



000
FTUS45 KRIW 231100
TAFWRL
TAF
KWRL 231122Z 2312/2412 VRB05KT P6SM SCT110
     FM232100 34008KT P6SM BKN100
     FM240000 VRB10G20KT P6SM VCSH BKN100
     FM240400 VRB06KT P6SM BKN100=



000
FTUS45 KRIW 231100
TAFCPR
TAF
KCPR 231122Z 2312/2412 22010KT P6SM SCT090 BKN120
     FM231600 22012G18KT P6SM SCT080 BKN110
     FM232200 VRB10G20KT P6SM VCSH BKN080
     FM240400 VRB06KT P6SM BKN090=



000
FTUS45 KRIW 231100
TAFWRL
TAF
KWRL 231122Z 2312/2412 VRB05KT P6SM SCT110
     FM232100 34008KT P6SM BKN100
     FM240000 VRB10G20KT P6SM VCSH BKN100
     FM240400 VRB06KT P6SM BKN100=



000
FTUS45 KRIW 231100
TAFLND
TAF
KLND 231122Z 2312/2412 VRB06KT P6SM SCT080 BKN110
     FM232000 VRB10G20KT P6SM VCSH BKN080
     FM240300 VRB05KT P6SM BKN100=



000
FTUS45 KRIW 231100
TAFCOD
TAF
KCOD 231122Z 2312/2412 VRB05KT P6SM SCT100
     FM231500 02009KT P6SM SCT080
     FM232100 02011KT P6SM VCSH BKN080
     FM240300 34006KT P6SM BKN100
      AMD LTD TO CLD VIS AND WIND=



000
FTUS45 KRIW 231100
TAFBPI
TAF
KBPI 231122Z 2312/2412 VRB05KT P6SM SCT080 BKN100
     FM231700 VRB08G15KT P6SM VCSH BKN050 OVC080
     FM240100 30010KT P6SM BKN080
     FM240500 VRB06KT P6SM SCT090=



000
FTUS45 KRIW 231100
TAFJAC
TAF
KJAC 231122Z 2312/2412 19006KT P6SM BKN090
     FM231700 19011KT P6SM VCSH SCT035 BKN060
     FM240200 20009KT P6SM BKN080
      AMD LTD TO CLD VIS AND WIND=



000
FTUS45 KRIW 231100
TAFRIW
TAF
KRIW 231122Z 2312/2412 VRB06KT P6SM SCT090 BKN120
     FM232100 VRB10G20KT P6SM VCSH BKN080
     FM240300 30007KT P6SM BKN100=



000
FTUS45 KRIW 231100
TAFRKS
TAF
KRKS 231122Z 2312/2412 24009KT P6SM SCT100
     FM232000 25012G20KT P6SM VCSH BKN070
     FM240300 25008KT P6SM BKN090=



000
FTUS45 KRIW 231100
TAFCPR
TAF
KCPR 231122Z 2312/2412 22010KT P6SM SCT090 BKN120
     FM231600 22012G18KT P6SM SCT080 BKN110
     FM232200 VRB10G20KT P6SM VCSH BKN080
     FM240400 VRB06KT P6SM BKN090=



000
FTUS45 KRIW 231100
TAFJAC
TAF
KJAC 231122Z 2312/2412 19006KT P6SM BKN090
     FM231700 19011KT P6SM VCSH SCT035 BKN060
     FM240200 20009KT P6SM BKN080
      AMD LTD TO CLD VIS AND WIND=



000
FTUS45 KRIW 231100
TAFLND
TAF
KLND 231122Z 2312/2412 VRB06KT P6SM SCT080 BKN110
     FM232000 VRB10G20KT P6SM VCSH BKN080
     FM240300 VRB05KT P6SM BKN100=



000
FTUS45 KRIW 231100
TAFCOD
TAF
KCOD 231122Z 2312/2412 VRB05KT P6SM SCT100
     FM231500 02009KT P6SM SCT080
     FM232100 02011KT P6SM VCSH BKN080
     FM240300 34006KT P6SM BKN100
      AMD LTD TO CLD VIS AND WIND=



000
FTUS45 KRIW 231100
TAFBPI
TAF
KBPI 231122Z 2312/2412 VRB05KT P6SM SCT080 BKN100
     FM231700 VRB08G15KT P6SM VCSH BKN050 OVC080
     FM240100 30010KT P6SM BKN080
     FM240500 VRB06KT P6SM SCT090=



000
FTUS45 KRIW 230500
TAFLND
TAF
KLND 230526Z 2306/2406 VRB06KT P6SM SCT100
     FM232000 VRB10G20KT P6SM VCSH BKN080
     FM240300 VRB05KT P6SM BKN100=



000
FTUS45 KRIW 230500
TAFRIW
TAF
KRIW 230526Z 2306/2406 VRB06KT P6SM SCT100
     FM232100 VRB10G20KT P6SM VCSH BKN080
     FM240300 30007KT P6SM BKN100=



000
FTUS45 KRIW 230500
TAFWRL
TAF
KWRL 230526Z 2306/2406 VRB05KT P6SM SCT100
     FM232100 34008KT P6SM BKN100
     FM240000 VRB10G20KT P6SM VCSH BKN100
     FM240400 VRB06KT P6SM BKN100=



000
FTUS45 KRIW 230500
TAFCPR
TAF
KCPR 230526Z 2306/2406 VRB06KT P6SM SCT100
     FM231000 24007KT P6SM SCT100
     FM231600 22012G18KT P6SM SCT080
     FM232200 VRB10G20KT P6SM VCSH BKN080
     FM240400 VRB06KT P6SM BKN090=



000
FTUS45 KRIW 230500
TAFCOD
TAF
KCOD 230526Z 2306/2406 VRB05KT P6SM SCT100
     FM231500 02009KT P6SM SCT080
     FM232100 02011KT P6SM VCSH BKN080
     FM240300 34006KT P6SM BKN100
      AMD LTD TO CLD VIS AND WIND=



000
FTUS45 KRIW 230500
TAFBPI
TAF
KBPI 230526Z 2306/2406 VRB06KT P6SM BKN100
     FM231900 VRB12G20KT P6SM VCSH BKN080
     FM240100 30010KT P6SM BKN080
     FM240500 VRB06KT P6SM SCT090=



000
FTUS45 KRIW 230500
TAFJAC
TAF
KJAC 230526Z 2306/2406 19006KT P6SM BKN090
     FM231900 19011KT P6SM VCSH BKN060
     FM240200 20009KT P6SM BKN080
      AMD LTD TO CLD VIS AND WIND=



000
FTUS45 KRIW 230500
TAFRKS
TAF
KRKS 230526Z 2306/2406 24009KT P6SM SCT100
     FM232000 25012G20KT P6SM VCSH BKN070
     FM240300 25008KT P6SM BKN090=



000
FTUS45 KRIW 230200 AAA
TAFCPR
TAF AMD
KCPR 230252Z 2303/2324 09011KT P6SM SCT080 SCT110
     FM230600 VRB06KT P6SM SCT100
     FM231000 24007KT P6SM SCT080
     FM231600 22012G18KT P6SM SCT080
     FM232100 VRB10G15KT P6SM VCSH BKN080=



000
FTUS45 KRIW 230200 AAA
TAFCPR
TAF AMD
KCPR 230252Z 2303/2324 09011KT P6SM SCT080 SCT110
     FM230600 VRB06KT P6SM SCT100
     FM231000 24007KT P6SM SCT080
     FM231600 22012G18KT P6SM SCT080
     FM232100 VRB10G15KT P6SM VCSH BKN080=



000
FTUS45 KRIW 222300
TAFCPR
TAF
KCPR 222323Z 2300/2324 03006KT P6SM SCT080 BKN110
     FM230300 12008KT P6SM SCT080
     FM231000 24007KT P6SM SCT080
     FM231600 22012G18KT P6SM SCT080
     FM232100 VRB10G15KT P6SM VCSH BKN080=



000
FTUS45 KRIW 222300
TAFRKS
TAF
KRKS 222323Z 2300/2324 VRB10G15KT P6SM VCSH BKN070
     FM230300 24006KT P6SM BKN080
     FM230700 23006KT P6SM SCT080
     FM232000 25012G20KT P6SM VCSH BKN070=



000
FTUS45 KRIW 222300
TAFJAC
TAF
KJAC 222323Z 2300/2324 21009KT P6SM VCSH BKN060
     FM230300 VRB04KT P6SM BKN070
     FM230600 36006KT P6SM SCT080
     FM231600 18006KT P6SM BKN080
     FM232000 19011KT P6SM VCSH BKN060
      AMD LTD TO CLD VIS AND WIND=



000
FTUS45 KRIW 222300
TAFBPI
TAF
KBPI 222323Z 2300/2324 VRB12G18KT P6SM VCSH BKN070
     FM230300 35005KT P6SM BKN080
     FM230700 VRB05KT P6SM BKN090
     FM232100 29012G20KT P6SM VCSH BKN070=



000
FTUS45 KRIW 222300
TAFCOD
TAF
KCOD 222323Z 2300/2324 VRB05KT P6SM BKN080
     FM230700 21006KT P6SM SCT080
     FM231500 02009KT P6SM SCT080
     FM232100 02011KT P6SM VCSH BKN080
      AMD LTD TO CLD VIS AND WIND=



000
FTUS45 KRIW 222300
TAFWRL
TAF
KWRL 222323Z 2300/2324 VRB05KT P6SM BKN090
     FM230600 VRB05KT P6SM SCT100
     FM232100 34008KT P6SM BKN100=



000
FTUS45 KRIW 222300
TAFLND
TAF
KLND 222323Z 2300/2324 VRB06KT P6SM VCSH SCT070 BKN100
     FM230300 VRB05KT P6SM FEW070 BKN100
     FM230900 VRB05KT P6SM SCT100
     FM232000 VRB10G15KT P6SM VCSH BKN080=



000
FTUS45 KRIW 222300
TAFRIW
TAF
KRIW 222323Z 2300/2324 09007KT P6SM SCT070 BKN120
     FM230800 VRB05KT P6SM SCT120
     FM232100 VRB10G15KT P6SM VCSH BKN080=



000
FTUS45 KRIW 222300
TAFWRL
TAF
KWRL 222323Z 2300/2324 VRB05KT P6SM BKN090
     FM230600 VRB05KT P6SM SCT100
     FM232100 34008KT P6SM BKN100=



000
FTUS45 KRIW 222300
TAFRKS
TAF
KRKS 222323Z 2300/2324 VRB10G15KT P6SM VCSH BKN070
     FM230300 24006KT P6SM BKN080
     FM230700 23006KT P6SM SCT080
     FM232000 25012G20KT P6SM VCSH BKN070=



000
FTUS45 KRIW 222300
TAFRIW
TAF
KRIW 222323Z 2300/2324 09007KT P6SM SCT070 BKN120
     FM230800 VRB05KT P6SM SCT120
     FM232100 VRB10G15KT P6SM VCSH BKN080=



000
FTUS45 KRIW 222300
TAFJAC
TAF
KJAC 222323Z 2300/2324 21009KT P6SM VCSH BKN060
     FM230300 VRB04KT P6SM BKN070
     FM230600 36006KT P6SM SCT080
     FM231600 18006KT P6SM BKN080
     FM232000 19011KT P6SM VCSH BKN060
      AMD LTD TO CLD VIS AND WIND=



000
FTUS45 KRIW 222300
TAFLND
TAF
KLND 222323Z 2300/2324 VRB06KT P6SM VCSH SCT070 BKN100
     FM230300 VRB05KT P6SM FEW070 BKN100
     FM230900 VRB05KT P6SM SCT100
     FM232000 VRB10G15KT P6SM VCSH BKN080=



000
FTUS45 KRIW 222300
TAFCPR
TAF
KCPR 222323Z 2300/2324 03006KT P6SM SCT080 BKN110
     FM230300 12008KT P6SM SCT080
     FM231000 24007KT P6SM SCT080
     FM231600 22012G18KT P6SM SCT080
     FM232100 VRB10G15KT P6SM VCSH BKN080=



000
FTUS45 KRIW 222300
TAFCOD
TAF
KCOD 222323Z 2300/2324 VRB05KT P6SM BKN080
     FM230700 21006KT P6SM SCT080
     FM231500 02009KT P6SM SCT080
     FM232100 02011KT P6SM VCSH BKN080
      AMD LTD TO CLD VIS AND WIND=



000
FTUS45 KRIW 222300
TAFBPI
TAF
KBPI 222323Z 2300/2324 VRB12G18KT P6SM VCSH BKN070
     FM230300 35005KT P6SM BKN080
     FM230700 VRB05KT P6SM BKN090
     FM232100 29012G20KT P6SM VCSH BKN070=



000
FTUS45 KRIW 222000 AAA
TAFCPR
TAF AMD
KCPR 222037Z 2221/2318 VRB12G18KT P6SM VCSH BKN090
     FM222200 VRB06KT P6SM SCT090
     FM230300 12008KT P6SM SCT080
     FM231000 24007KT P6SM SCT080
     FM231600 22012G18KT P6SM SCT080=



000
FTUS45 KRIW 222000 AAA
TAFBPI
TAF AMD
KBPI 222009Z 2220/2318 VRB12G18KT P6SM VCSH BKN080
     FM230300 35005KT P6SM BKN080
     FM230700 VRB05KT P6SM BKN090=



000
FTUS45 KRIW 221700
TAFRIW
TAF
KRIW 221721Z 2218/2318 VRB06KT P6SM SCT070
     FM222100 09007KT P6SM SCT070 BKN120
     FM230800 VRB05KT P6SM SCT120=



000
FTUS45 KRIW 221700
TAFWRL
TAF
KWRL 221721Z 2218/2318 VRB05KT P6SM FEW110
     FM222000 VRB05KT P6SM SCT090
     FM230000 VRB05KT P6SM BKN090
     FM230600 VRB05KT P6SM SCT100=



000
FTUS45 KRIW 221700
TAFCOD
TAF
KCOD 221721Z 2218/2318 10006KT P6SM SCT080
     FM230000 VRB05KT P6SM BKN080
     FM230700 21006KT P6SM SCT080
     FM231500 02009KT P6SM SCT080
      AMD LTD TO CLD VIS AND WIND=



000
FTUS45 KRIW 221700
TAFBPI
TAF
KBPI 221721Z 2218/2318 VRB05KT P6SM FEW100
     FM222100 VRB06KT P6SM VCSH BKN070
     FM230300 35005KT P6SM BKN080
     FM230700 VRB05KT P6SM BKN090=



000
FTUS45 KRIW 221700
TAFRKS
TAF
KRKS 221721Z 2218/2318 25007KT P6SM SCT090
     FM222200 VRB10G15KT P6SM VCSH BKN070
     FM230300 24006KT P6SM BKN080
     FM230700 23006KT P6SM SCT080=



000
FTUS45 KRIW 221700
TAFJAC
TAF
KJAC 221721Z 2218/2318 20006KT P6SM SCT070
     FM222000 21009KT P6SM VCSH BKN060
     FM230300 VRB04KT P6SM BKN070
     FM230600 36006KT P6SM SCT080
     FM231600 18006KT P6SM BKN080
      AMD LTD TO CLD VIS AND WIND=



000
FTUS45 KRIW 221700
TAFLND
TAF
KLND 221721Z 2218/2318 VRB06KT P6SM FEW100
     FM222100 VRB06KT P6SM VCSH SCT070 BKN100
     FM230300 VRB05KT P6SM FEW070 BKN100
     FM230900 VRB05KT P6SM SCT100=



000
FTUS45 KRIW 221700
TAFCPR
TAF
KCPR 221721Z 2218/2318 22008KT P6SM SCT080
     FM222100 VRB06KT P6SM SCT080
     FM230300 12008KT P6SM SCT080
     FM231000 24007KT P6SM SCT080
     FM231600 22012G18KT P6SM SCT080=



    US Dept of Commerce
    National Oceanic and Atmospheric Administration
    National Weather Service
    1325 East West Highway
    Silver Spring, MD 20910
    Page Author: NWS Internet Services Team
Disclaimer
Information Quality
Credits
Glossary
Privacy Policy
Freedom of Information Act (FOIA)
About Us
Career Opportunities